sensor_id;sensor_type;location;lat;lon;timestamp;P1;durP1;ratioP1;P2;durP2;ratioP2
68108;SDS011;54893;49.864;19.084;2023-03-01T00:04:33;159.30;;;52.93;;
68108;SDS011;54893;49.864;19.084;2023-03-01T00:09:36;153.98;;;49.80;;
68108;SDS011;54893;49.864;19.084;2023-03-01T00:14:37;157.40;;;54.30;;
68108;SDS011;54893;49.864;19.084;2023-03-01T00:19:37;134.70;;;46.17;;
68108;SDS011;54893;49.864;19.084;2023-03-01T00:24:37;142.20;;;48.07;;
68108;SDS011;54893;49.864;19.084;2023-03-01T00:29:38;148.25;;;50.35;;
68108;SDS011;54893;49.864;19.084;2023-03-01T00:34:38;151.17;;;49.33;;
68108;SDS011;54893;49.864;19.084;2023-03-01T00:39:38;173.97;;;57.17;;
68108;SDS011;54893;49.864;19.084;2023-03-01T00:44:39;174.82;;;56.58;;
68108;SDS011;54893;49.864;19.084;2023-03-01T00:49:39;155.67;;;52.30;;
68108;SDS011;54893;49.864;19.084;2023-03-01T00:54:40;153.27;;;51.33;;
68108;SDS011;54893;49.864;19.084;2023-03-01T00:59:40;159.53;;;53.83;;
68108;SDS011;54893;49.864;19.084;2023-03-01T01:04:40;156.10;;;50.30;;
68108;SDS011;54893;49.864;19.084;2023-03-01T01:09:41;174.07;;;56.57;;
68108;SDS011;54893;49.864;19.084;2023-03-01T01:14:41;176.27;;;56.80;;
68108;SDS011;54893;49.864;19.084;2023-03-01T01:19:41;151.80;;;53.50;;
68108;SDS011;54893;49.864;19.084;2023-03-01T01:24:42;155.73;;;52.50;;
68108;SDS011;54893;49.864;19.084;2023-03-01T01:29:42;160.77;;;52.93;;
68108;SDS011;54893;49.864;19.084;2023-03-01T01:34:43;141.13;;;49.50;;
68108;SDS011;54893;49.864;19.084;2023-03-01T01:39:43;116.43;;;40.03;;
68108;SDS011;54893;49.864;19.084;2023-03-01T01:44:47;122.10;;;43.17;;
68108;SDS011;54893;49.864;19.084;2023-03-01T01:49:49;117.10;;;39.67;;
68108;SDS011;54893;49.864;19.084;2023-03-01T02:00:12;127.97;;;44.40;;
68108;SDS011;54893;49.864;19.084;2023-03-01T02:05:20;120.37;;;41.47;;
68108;SDS011;54893;49.864;19.084;2023-03-01T02:10:26;138.70;;;46.60;;
68108;SDS011;54893;49.864;19.084;2023-03-01T02:15:31;118.83;;;43.37;;
68108;SDS011;54893;49.864;19.084;2023-03-01T02:26:03;133.85;;;45.78;;
68108;SDS011;54893;49.864;19.084;2023-03-01T02:31:15;131.00;;;44.70;;
68108;SDS011;54893;49.864;19.084;2023-03-01T02:36:37;133.73;;;46.75;;
68108;SDS011;54893;49.864;19.084;2023-03-01T02:41:41;125.93;;;43.50;;
68108;SDS011;54893;49.864;19.084;2023-03-01T02:46:47;109.03;;;36.42;;
68108;SDS011;54893;49.864;19.084;2023-03-01T02:51:56;117.35;;;37.80;;
68108;SDS011;54893;49.864;19.084;2023-03-01T02:57:01;106.23;;;37.17;;
68108;SDS011;54893;49.864;19.084;2023-03-01T03:02:03;138.90;;;45.38;;
68108;SDS011;54893;49.864;19.084;2023-03-01T03:07:03;123.93;;;43.17;;
68108;SDS011;54893;49.864;19.084;2023-03-01T03:12:03;140.27;;;49.85;;
68108;SDS011;54893;49.864;19.084;2023-03-01T03:17:04;133.33;;;48.40;;
68108;SDS011;54893;49.864;19.084;2023-03-01T03:22:06;138.90;;;48.77;;
68108;SDS011;54893;49.864;19.084;2023-03-01T03:27:08;126.78;;;46.38;;
68108;SDS011;54893;49.864;19.084;2023-03-01T03:32:09;147.73;;;50.23;;
68108;SDS011;54893;49.864;19.084;2023-03-01T03:37:09;126.73;;;43.93;;
68108;SDS011;54893;49.864;19.084;2023-03-01T03:42:29;136.90;;;47.57;;
68108;SDS011;54893;49.864;19.084;2023-03-01T03:47:30;132.35;;;45.83;;
68108;SDS011;54893;49.864;19.084;2023-03-01T03:52:30;130.30;;;46.97;;
68108;SDS011;54893;49.864;19.084;2023-03-01T03:57:30;131.23;;;44.57;;
68108;SDS011;54893;49.864;19.084;2023-03-01T04:02:31;131.98;;;44.17;;
68108;SDS011;54893;49.864;19.084;2023-03-01T04:07:31;128.73;;;43.50;;
68108;SDS011;54893;49.864;19.084;2023-03-01T04:12:32;129.60;;;45.80;;
68108;SDS011;54893;49.864;19.084;2023-03-01T04:17:34;124.25;;;44.10;;
68108;SDS011;54893;49.864;19.084;2023-03-01T04:22:34;132.87;;;44.30;;
68108;SDS011;54893;49.864;19.084;2023-03-01T04:27:35;125.57;;;41.87;;
68108;SDS011;54893;49.864;19.084;2023-03-01T04:32:38;120.80;;;40.03;;
68108;SDS011;54893;49.864;19.084;2023-03-01T04:37:38;128.80;;;41.80;;
68108;SDS011;54893;49.864;19.084;2023-03-01T04:42:38;112.47;;;36.73;;
68108;SDS011;54893;49.864;19.084;2023-03-01T04:47:40;123.97;;;43.17;;
68108;SDS011;54893;49.864;19.084;2023-03-01T04:52:41;138.67;;;48.13;;
68108;SDS011;54893;49.864;19.084;2023-03-01T04:57:42;133.45;;;45.58;;
68108;SDS011;54893;49.864;19.084;2023-03-01T05:02:42;124.90;;;40.87;;
68108;SDS011;54893;49.864;19.084;2023-03-01T05:07:43;111.50;;;37.50;;
68108;SDS011;54893;49.864;19.084;2023-03-01T05:12:43;105.10;;;36.97;;
68108;SDS011;54893;49.864;19.084;2023-03-01T05:17:43;101.50;;;34.33;;
68108;SDS011;54893;49.864;19.084;2023-03-01T05:22:44;99.93;;;34.73;;
68108;SDS011;54893;49.864;19.084;2023-03-01T05:27:44;107.73;;;37.87;;
68108;SDS011;54893;49.864;19.084;2023-03-01T05:32:48;105.87;;;35.03;;
68108;SDS011;54893;49.864;19.084;2023-03-01T05:37:55;110.57;;;39.17;;
68108;SDS011;54893;49.864;19.084;2023-03-01T05:42:56;112.47;;;37.70;;
68108;SDS011;54893;49.864;19.084;2023-03-01T05:47:56;164.82;;;66.07;;
68108;SDS011;54893;49.864;19.084;2023-03-01T05:53:04;107.80;;;36.17;;
68108;SDS011;54893;49.864;19.084;2023-03-01T05:58:17;128.05;;;45.22;;
68108;SDS011;54893;49.864;19.084;2023-03-01T06:03:19;132.88;;;46.05;;
68108;SDS011;54893;49.864;19.084;2023-03-01T06:08:19;124.17;;;43.37;;
68108;SDS011;54893;49.864;19.084;2023-03-01T06:13:22;90.03;;;34.23;;
68108;SDS011;54893;49.864;19.084;2023-03-01T06:18:23;117.88;;;42.00;;
68108;SDS011;54893;49.864;19.084;2023-03-01T06:23:23;117.20;;;44.23;;
68108;SDS011;54893;49.864;19.084;2023-03-01T06:28:24;126.00;;;47.20;;
68108;SDS011;54893;49.864;19.084;2023-03-01T06:33:24;118.20;;;43.63;;
68108;SDS011;54893;49.864;19.084;2023-03-01T06:38:25;105.27;;;37.53;;
68108;SDS011;54893;49.864;19.084;2023-03-01T06:43:25;110.18;;;39.20;;
68108;SDS011;54893;49.864;19.084;2023-03-01T06:48:25;106.63;;;39.77;;
68108;SDS011;54893;49.864;19.084;2023-03-01T06:53:29;90.30;;;32.70;;
68108;SDS011;54893;49.864;19.084;2023-03-01T06:58:29;221.17;;;71.93;;
68108;SDS011;54893;49.864;19.084;2023-03-01T07:03:30;231.17;;;78.50;;
68108;SDS011;54893;49.864;19.084;2023-03-01T07:08:30;161.57;;;53.10;;
68108;SDS011;54893;49.864;19.084;2023-03-01T07:13:31;125.77;;;47.17;;
68108;SDS011;54893;49.864;19.084;2023-03-01T07:18:31;88.95;;;30.90;;
68108;SDS011;54893;49.864;19.084;2023-03-01T07:23:33;82.67;;;29.63;;
68108;SDS011;54893;49.864;19.084;2023-03-01T07:28:33;76.90;;;28.83;;
68108;SDS011;54893;49.864;19.084;2023-03-01T07:33:39;89.18;;;32.78;;
68108;SDS011;54893;49.864;19.084;2023-03-01T07:38:39;87.07;;;32.53;;
68108;SDS011;54893;49.864;19.084;2023-03-01T07:43:39;120.82;;;45.45;;
68108;SDS011;54893;49.864;19.084;2023-03-01T07:48:40;113.93;;;42.57;;
68108;SDS011;54893;49.864;19.084;2023-03-01T07:53:40;111.60;;;40.53;;
68108;SDS011;54893;49.864;19.084;2023-03-01T07:58:41;101.53;;;38.08;;
68108;SDS011;54893;49.864;19.084;2023-03-01T08:03:43;103.10;;;39.30;;
68108;SDS011;54893;49.864;19.084;2023-03-01T08:08:43;103.15;;;41.30;;
68108;SDS011;54893;49.864;19.084;2023-03-01T08:13:46;90.07;;;35.13;;
68108;SDS011;54893;49.864;19.084;2023-03-01T08:18:47;89.82;;;32.08;;
68108;SDS011;54893;49.864;19.084;2023-03-01T08:23:48;84.80;;;29.43;;
68108;SDS011;54893;49.864;19.084;2023-03-01T08:28:48;70.43;;;24.50;;
68108;SDS011;54893;49.864;19.084;2023-03-01T08:33:50;47.33;;;17.23;;
68108;SDS011;54893;49.864;19.084;2023-03-01T08:38:56;51.38;;;20.25;;
68108;SDS011;54893;49.864;19.084;2023-03-01T08:43:57;61.67;;;22.67;;
68108;SDS011;54893;49.864;19.084;2023-03-01T08:48:58;62.30;;;23.42;;
68108;SDS011;54893;49.864;19.084;2023-03-01T08:53:59;61.23;;;23.50;;
68108;SDS011;54893;49.864;19.084;2023-03-01T08:58:59;60.53;;;21.93;;
68108;SDS011;54893;49.864;19.084;2023-03-01T09:04:00;58.93;;;22.27;;
68108;SDS011;54893;49.864;19.084;2023-03-01T09:09:00;56.00;;;21.70;;
68108;SDS011;54893;49.864;19.084;2023-03-01T09:14:04;56.92;;;22.70;;
68108;SDS011;54893;49.864;19.084;2023-03-01T09:19:05;56.72;;;21.83;;
68108;SDS011;54893;49.864;19.084;2023-03-01T09:24:06;50.72;;;21.75;;
68108;SDS011;54893;49.864;19.084;2023-03-01T09:29:13;61.40;;;23.33;;
68108;SDS011;54893;49.864;19.084;2023-03-01T09:34:14;55.45;;;23.02;;
68108;SDS011;54893;49.864;19.084;2023-03-01T09:39:22;46.63;;;18.77;;
68108;SDS011;54893;49.864;19.084;2023-03-01T09:49:36;48.63;;;18.50;;
68108;SDS011;54893;49.864;19.084;2023-03-01T09:54:41;43.97;;;17.83;;
68108;SDS011;54893;49.864;19.084;2023-03-01T09:59:48;42.00;;;16.67;;
68108;SDS011;54893;49.864;19.084;2023-03-01T10:10:33;38.80;;;15.30;;
68108;SDS011;54893;49.864;19.084;2023-03-01T10:15:44;34.80;;;14.63;;
68108;SDS011;54893;49.864;19.084;2023-03-01T10:20:54;37.80;;;13.97;;
68108;SDS011;54893;49.864;19.084;2023-03-01T10:31:13;30.30;;;11.20;;
68108;SDS011;54893;49.864;19.084;2023-03-01T10:36:17;35.80;;;15.18;;
68108;SDS011;54893;49.864;19.084;2023-03-01T10:41:17;32.90;;;12.83;;
68108;SDS011;54893;49.864;19.084;2023-03-01T10:46:28;37.73;;;13.40;;
68108;SDS011;54893;49.864;19.084;2023-03-01T10:51:30;34.92;;;13.25;;
68108;SDS011;54893;49.864;19.084;2023-03-01T10:56:31;35.53;;;13.43;;
68108;SDS011;54893;49.864;19.084;2023-03-01T11:01:47;27.40;;;11.03;;
68108;SDS011;54893;49.864;19.084;2023-03-01T11:07:16;30.70;;;12.15;;
68108;SDS011;54893;49.864;19.084;2023-03-01T11:12:16;32.73;;;13.43;;
68108;SDS011;54893;49.864;19.084;2023-03-01T11:17:35;29.50;;;11.53;;
68108;SDS011;54893;49.864;19.084;2023-03-01T11:22:42;32.55;;;13.25;;
68108;SDS011;54893;49.864;19.084;2023-03-01T11:27:54;36.20;;;13.60;;
68108;SDS011;54893;49.864;19.084;2023-03-01T11:38:23;32.87;;;13.33;;
68108;SDS011;54893;49.864;19.084;2023-03-01T11:49:03;31.45;;;13.43;;
68108;SDS011;54893;49.864;19.084;2023-03-01T11:54:13;29.50;;;12.23;;
68108;SDS011;54893;49.864;19.084;2023-03-01T12:09:52;37.42;;;14.90;;
68108;SDS011;54893;49.864;19.084;2023-03-01T12:20:10;35.50;;;14.77;;
68108;SDS011;54893;49.864;19.084;2023-03-01T12:30:48;30.23;;;11.57;;
68108;SDS011;54893;49.864;19.084;2023-03-01T12:46:32;29.30;;;11.23;;
68108;SDS011;54893;49.864;19.084;2023-03-01T12:51:43;33.83;;;13.68;;
68108;SDS011;54893;49.864;19.084;2023-03-01T12:57:11;30.25;;;11.65;;
68108;SDS011;54893;49.864;19.084;2023-03-01T13:02:22;30.07;;;12.00;;
68108;SDS011;54893;49.864;19.084;2023-03-01T13:18:02;26.98;;;11.40;;
68108;SDS011;54893;49.864;19.084;2023-03-01T13:33:52;27.73;;;12.45;;
68108;SDS011;54893;49.864;19.084;2023-03-01T13:43:57;31.75;;;12.45;;
68108;SDS011;54893;49.864;19.084;2023-03-01T13:48:58;30.73;;;12.53;;
68108;SDS011;54893;49.864;19.084;2023-03-01T13:53:58;26.03;;;10.20;;
68108;SDS011;54893;49.864;19.084;2023-03-01T13:59:00;29.63;;;11.00;;
68108;SDS011;54893;49.864;19.084;2023-03-01T14:04:18;27.83;;;10.88;;
68108;SDS011;54893;49.864;19.084;2023-03-01T14:09:22;26.35;;;10.38;;
68108;SDS011;54893;49.864;19.084;2023-03-01T14:19:47;22.33;;;8.93;;
68108;SDS011;54893;49.864;19.084;2023-03-01T14:24:55;21.40;;;9.30;;
68108;SDS011;54893;49.864;19.084;2023-03-01T14:30:00;23.65;;;9.52;;
68108;SDS011;54893;49.864;19.084;2023-03-01T14:35:16;28.17;;;10.73;;
68108;SDS011;54893;49.864;19.084;2023-03-01T14:40:28;32.60;;;12.87;;
68108;SDS011;54893;49.864;19.084;2023-03-01T14:45:32;35.15;;;12.40;;
68108;SDS011;54893;49.864;19.084;2023-03-01T14:50:40;79.67;;;32.37;;
68108;SDS011;54893;49.864;19.084;2023-03-01T14:55:43;32.47;;;12.83;;
68108;SDS011;54893;49.864;19.084;2023-03-01T15:00:50;86.30;;;42.30;;
68108;SDS011;54893;49.864;19.084;2023-03-01T15:05:53;115.38;;;47.35;;
68108;SDS011;54893;49.864;19.084;2023-03-01T15:10:58;73.20;;;29.60;;
68108;SDS011;54893;49.864;19.084;2023-03-01T15:16:05;118.18;;;61.22;;
68108;SDS011;54893;49.864;19.084;2023-03-01T15:31:53;34.60;;;13.60;;
68108;SDS011;54893;49.864;19.084;2023-03-01T15:42:44;36.72;;;16.02;;
68108;SDS011;54893;49.864;19.084;2023-03-01T15:47:48;35.33;;;15.07;;
68108;SDS011;54893;49.864;19.084;2023-03-01T15:52:50;46.67;;;16.17;;
68108;SDS011;54893;49.864;19.084;2023-03-01T15:57:57;80.57;;;22.95;;
68108;SDS011;54893;49.864;19.084;2023-03-01T16:03:03;138.73;;;41.03;;
68108;SDS011;54893;49.864;19.084;2023-03-01T16:08:03;125.33;;;33.33;;
68108;SDS011;54893;49.864;19.084;2023-03-01T16:13:05;131.77;;;33.28;;
68108;SDS011;54893;49.864;19.084;2023-03-01T16:18:06;281.13;;;80.63;;
68108;SDS011;54893;49.864;19.084;2023-03-01T16:23:08;159.37;;;44.97;;
68108;SDS011;54893;49.864;19.084;2023-03-01T16:28:10;88.70;;;25.88;;
68108;SDS011;54893;49.864;19.084;2023-03-01T16:33:10;53.83;;;18.13;;
68108;SDS011;54893;49.864;19.084;2023-03-01T16:38:10;50.93;;;17.03;;
68108;SDS011;54893;49.864;19.084;2023-03-01T16:43:11;58.47;;;19.10;;
68108;SDS011;54893;49.864;19.084;2023-03-01T16:48:12;56.37;;;20.47;;
68108;SDS011;54893;49.864;19.084;2023-03-01T16:53:12;85.45;;;30.58;;
68108;SDS011;54893;49.864;19.084;2023-03-01T16:58:13;153.48;;;44.30;;
68108;SDS011;54893;49.864;19.084;2023-03-01T17:03:15;159.00;;;49.43;;
68108;SDS011;54893;49.864;19.084;2023-03-01T17:08:17;153.52;;;50.88;;
68108;SDS011;54893;49.864;19.084;2023-03-01T17:13:17;130.30;;;40.87;;
68108;SDS011;54893;49.864;19.084;2023-03-01T17:18:17;149.27;;;54.20;;
68108;SDS011;54893;49.864;19.084;2023-03-01T17:23:18;240.13;;;77.03;;
68108;SDS011;54893;49.864;19.084;2023-03-01T17:28:18;371.70;;;113.57;;
68108;SDS011;54893;49.864;19.084;2023-03-01T17:33:19;273.27;;;89.07;;
68108;SDS011;54893;49.864;19.084;2023-03-01T17:38:20;117.57;;;43.43;;
68108;SDS011;54893;49.864;19.084;2023-03-01T17:43:20;111.03;;;38.55;;
68108;SDS011;54893;49.864;19.084;2023-03-01T17:48:20;159.30;;;52.83;;
68108;SDS011;54893;49.864;19.084;2023-03-01T17:53:21;190.35;;;56.47;;
68108;SDS011;54893;49.864;19.084;2023-03-01T17:58:22;207.83;;;64.17;;
68108;SDS011;54893;49.864;19.084;2023-03-01T18:03:22;207.57;;;65.33;;
68108;SDS011;54893;49.864;19.084;2023-03-01T18:08:22;183.43;;;57.87;;
68108;SDS011;54893;49.864;19.084;2023-03-01T18:13:23;225.00;;;75.00;;
68108;SDS011;54893;49.864;19.084;2023-03-01T18:18:23;346.70;;;103.27;;
68108;SDS011;54893;49.864;19.084;2023-03-01T18:23:23;307.85;;;104.60;;
68108;SDS011;54893;49.864;19.084;2023-03-01T18:28:24;209.73;;;67.68;;
68108;SDS011;54893;49.864;19.084;2023-03-01T18:33:25;185.10;;;59.07;;
68108;SDS011;54893;49.864;19.084;2023-03-01T18:38:26;170.73;;;62.57;;
68108;SDS011;54893;49.864;19.084;2023-03-01T18:43:28;171.00;;;58.13;;
68108;SDS011;54893;49.864;19.084;2023-03-01T18:48:29;205.85;;;72.70;;
68108;SDS011;54893;49.864;19.084;2023-03-01T18:53:29;184.52;;;67.28;;
68108;SDS011;54893;49.864;19.084;2023-03-01T18:58:30;173.40;;;63.13;;
68108;SDS011;54893;49.864;19.084;2023-03-01T19:03:30;178.30;;;60.60;;
68108;SDS011;54893;49.864;19.084;2023-03-01T19:08:31;146.27;;;51.43;;
68108;SDS011;54893;49.864;19.084;2023-03-01T19:13:32;155.40;;;52.10;;
68108;SDS011;54893;49.864;19.084;2023-03-01T19:18:34;153.85;;;55.08;;
68108;SDS011;54893;49.864;19.084;2023-03-01T19:23:35;110.20;;;37.60;;
68108;SDS011;54893;49.864;19.084;2023-03-01T19:28:37;116.45;;;40.88;;
68108;SDS011;54893;49.864;19.084;2023-03-01T19:33:38;102.83;;;35.07;;
68108;SDS011;54893;49.864;19.084;2023-03-01T19:38:39;87.38;;;28.77;;
68108;SDS011;54893;49.864;19.084;2023-03-01T19:43:41;168.50;;;57.57;;
68108;SDS011;54893;49.864;19.084;2023-03-01T19:48:42;154.43;;;49.05;;
68108;SDS011;54893;49.864;19.084;2023-03-01T19:53:43;119.30;;;36.53;;
68108;SDS011;54893;49.864;19.084;2023-03-01T19:58:44;104.73;;;33.23;;
68108;SDS011;54893;49.864;19.084;2023-03-01T20:03:46;115.00;;;36.05;;
68108;SDS011;54893;49.864;19.084;2023-03-01T20:08:47;94.70;;;29.67;;
68108;SDS011;54893;49.864;19.084;2023-03-01T20:13:48;81.68;;;26.10;;
68108;SDS011;54893;49.864;19.084;2023-03-01T20:18:48;94.87;;;29.73;;
68108;SDS011;54893;49.864;19.084;2023-03-01T20:23:49;103.38;;;34.53;;
68108;SDS011;54893;49.864;19.084;2023-03-01T20:28:51;84.30;;;28.60;;
68108;SDS011;54893;49.864;19.084;2023-03-01T20:33:53;87.17;;;28.43;;
68108;SDS011;54893;49.864;19.084;2023-03-01T20:38:58;131.20;;;39.42;;
68108;SDS011;54893;49.864;19.084;2023-03-01T20:43:58;115.38;;;39.20;;
68108;SDS011;54893;49.864;19.084;2023-03-01T20:48:59;110.33;;;36.90;;
68108;SDS011;54893;49.864;19.084;2023-03-01T20:54:00;105.67;;;31.47;;
68108;SDS011;54893;49.864;19.084;2023-03-01T20:59:04;139.00;;;44.23;;
68108;SDS011;54893;49.864;19.084;2023-03-01T21:04:08;99.25;;;34.10;;
68108;SDS011;54893;49.864;19.084;2023-03-01T21:09:08;93.97;;;31.53;;
68108;SDS011;54893;49.864;19.084;2023-03-01T21:14:09;86.30;;;29.02;;
68108;SDS011;54893;49.864;19.084;2023-03-01T21:19:11;78.07;;;27.23;;
68108;SDS011;54893;49.864;19.084;2023-03-01T21:24:12;83.32;;;27.13;;
68108;SDS011;54893;49.864;19.084;2023-03-01T21:29:13;89.90;;;28.53;;
68108;SDS011;54893;49.864;19.084;2023-03-01T21:34:13;82.17;;;26.53;;
68108;SDS011;54893;49.864;19.084;2023-03-01T21:39:13;78.00;;;23.38;;
68108;SDS011;54893;49.864;19.084;2023-03-01T21:44:14;73.20;;;24.23;;
68108;SDS011;54893;49.864;19.084;2023-03-01T21:49:14;98.87;;;31.17;;
68108;SDS011;54893;49.864;19.084;2023-03-01T21:54:16;93.72;;;26.73;;
68108;SDS011;54893;49.864;19.084;2023-03-01T21:59:19;84.60;;;28.57;;
68108;SDS011;54893;49.864;19.084;2023-03-01T22:04:20;85.20;;;27.33;;
68108;SDS011;54893;49.864;19.084;2023-03-01T22:09:21;170.68;;;42.20;;
68108;SDS011;54893;49.864;19.084;2023-03-01T22:14:22;125.63;;;34.70;;
68108;SDS011;54893;49.864;19.084;2023-03-01T22:19:23;113.27;;;31.00;;
68108;SDS011;54893;49.864;19.084;2023-03-01T22:24:23;104.70;;;29.60;;
68108;SDS011;54893;49.864;19.084;2023-03-01T22:29:25;139.23;;;39.92;;
68108;SDS011;54893;49.864;19.084;2023-03-01T22:34:29;106.78;;;31.17;;
68108;SDS011;54893;49.864;19.084;2023-03-01T22:39:29;133.93;;;31.93;;
68108;SDS011;54893;49.864;19.084;2023-03-01T22:44:30;105.07;;;31.17;;
68108;SDS011;54893;49.864;19.084;2023-03-01T22:49:31;201.88;;;57.80;;
68108;SDS011;54893;49.864;19.084;2023-03-01T22:54:31;115.37;;;36.67;;
68108;SDS011;54893;49.864;19.084;2023-03-01T22:59:31;119.47;;;39.07;;
68108;SDS011;54893;49.864;19.084;2023-03-01T23:04:32;114.90;;;38.50;;
68108;SDS011;54893;49.864;19.084;2023-03-01T23:09:32;149.05;;;48.25;;
68108;SDS011;54893;49.864;19.084;2023-03-01T23:14:33;140.93;;;44.37;;
68108;SDS011;54893;49.864;19.084;2023-03-01T23:19:34;170.93;;;50.42;;
68108;SDS011;54893;49.864;19.084;2023-03-01T23:24:35;148.00;;;46.90;;
68108;SDS011;54893;49.864;19.084;2023-03-01T23:29:35;151.07;;;50.67;;
68108;SDS011;54893;49.864;19.084;2023-03-01T23:34:36;170.67;;;55.93;;
68108;SDS011;54893;49.864;19.084;2023-03-01T23:39:37;142.87;;;48.37;;
68108;SDS011;54893;49.864;19.084;2023-03-01T23:44:39;194.07;;;59.47;;
68108;SDS011;54893;49.864;19.084;2023-03-01T23:49:40;179.53;;;59.37;;
68108;SDS011;54893;49.864;19.084;2023-03-01T23:54:40;196.73;;;63.80;;
68108;SDS011;54893;49.864;19.084;2023-03-01T23:59:41;187.67;;;61.70;;
